sensor_id;sensor_type;location;lat;lon;timestamp;temperature;humidity
75262;DHT22;63859;51.064;4.580;2023-04-03T00:01:30;4.30;99.90
75262;DHT22;63859;51.064;4.580;2023-04-03T00:03:56;4.30;99.90
75262;DHT22;63859;51.064;4.580;2023-04-03T00:06:23;4.30;99.90
75262;DHT22;63859;51.064;4.580;2023-04-03T00:08:49;4.30;99.90
75262;DHT22;63859;51.064;4.580;2023-04-03T00:11:15;4.30;99.90
75262;DHT22;63859;51.064;4.580;2023-04-03T00:13:42;4.20;99.90
75262;DHT22;63859;51.064;4.580;2023-04-03T00:16:08;4.20;99.90
75262;DHT22;63859;51.064;4.580;2023-04-03T00:18:35;4.20;99.90
75262;DHT22;63859;51.064;4.580;2023-04-03T00:21:00;4.20;99.90
75262;DHT22;63859;51.064;4.580;2023-04-03T00:23:26;4.10;99.90
75262;DHT22;63859;51.064;4.580;2023-04-03T00:25:53;4.10;99.90
75262;DHT22;63859;51.064;4.580;2023-04-03T00:28:19;4.10;99.90
75262;DHT22;63859;51.064;4.580;2023-04-03T00:30:46;4.00;99.90
75262;DHT22;63859;51.064;4.580;2023-04-03T00:33:12;4.00;99.90
75262;DHT22;63859;51.064;4.580;2023-04-03T00:35:38;4.00;99.90
75262;DHT22;63859;51.064;4.580;2023-04-03T00:38:03;4.00;99.90
75262;DHT22;63859;51.064;4.580;2023-04-03T00:40:34;3.90;99.90
75262;DHT22;63859;51.064;4.580;2023-04-03T00:43:01;3.80;99.90
75262;DHT22;63859;51.064;4.580;2023-04-03T00:47:55;3.90;99.90
75262;DHT22;63859;51.064;4.580;2023-04-03T00:50:22;3.90;99.90
75262;DHT22;63859;51.064;4.580;2023-04-03T00:52:48;3.80;99.90
75262;DHT22;63859;51.064;4.580;2023-04-03T00:55:15;3.80;99.90
75262;DHT22;63859;51.064;4.580;2023-04-03T00:57:42;3.70;99.90
75262;DHT22;63859;51.064;4.580;2023-04-03T01:00:11;3.70;99.90
75262;DHT22;63859;51.064;4.580;2023-04-03T01:02:37;3.70;99.90
75262;DHT22;63859;51.064;4.580;2023-04-03T01:05:06;3.70;99.90
75262;DHT22;63859;51.064;4.580;2023-04-03T01:07:32;3.70;99.90
75262;DHT22;63859;51.064;4.580;2023-04-03T01:10:02;3.60;99.90
75262;DHT22;63859;51.064;4.580;2023-04-03T01:12:37;3.70;99.90
75262;DHT22;63859;51.064;4.580;2023-04-03T01:15:10;3.70;99.90
75262;DHT22;63859;51.064;4.580;2023-04-03T01:17:46;3.70;99.90
75262;DHT22;63859;51.064;4.580;2023-04-03T01:25:18;3.60;99.90
75262;DHT22;63859;51.064;4.580;2023-04-03T01:27:43;3.60;99.90
75262;DHT22;63859;51.064;4.580;2023-04-03T01:30:09;3.60;99.90
75262;DHT22;63859;51.064;4.580;2023-04-03T01:32:35;3.60;99.90
75262;DHT22;63859;51.064;4.580;2023-04-03T01:35:01;3.60;99.90
75262;DHT22;63859;51.064;4.580;2023-04-03T01:37:26;3.60;99.90
75262;DHT22;63859;51.064;4.580;2023-04-03T01:39:52;3.60;99.90
75262;DHT22;63859;51.064;4.580;2023-04-03T01:42:17;3.50;99.90
75262;DHT22;63859;51.064;4.580;2023-04-03T01:44:43;3.60;99.90
75262;DHT22;63859;51.064;4.580;2023-04-03T01:47:10;3.60;99.90
75262;DHT22;63859;51.064;4.580;2023-04-03T01:49:35;3.50;99.90
75262;DHT22;63859;51.064;4.580;2023-04-03T01:52:01;3.50;99.90
75262;DHT22;63859;51.064;4.580;2023-04-03T01:54:26;3.40;99.90
75262;DHT22;63859;51.064;4.580;2023-04-03T01:56:52;3.40;99.90
75262;DHT22;63859;51.064;4.580;2023-04-03T01:59:18;3.40;99.90
75262;DHT22;63859;51.064;4.580;2023-04-03T02:01:44;3.40;99.90
75262;DHT22;63859;51.064;4.580;2023-04-03T02:04:11;3.40;99.90
75262;DHT22;63859;51.064;4.580;2023-04-03T02:06:37;3.30;99.90
75262;DHT22;63859;51.064;4.580;2023-04-03T02:09:03;3.40;99.90
75262;DHT22;63859;51.064;4.580;2023-04-03T02:11:29;3.40;99.90
75262;DHT22;63859;51.064;4.580;2023-04-03T02:13:55;3.30;99.90
75262;DHT22;63859;51.064;4.580;2023-04-03T02:16:21;3.30;99.90
75262;DHT22;63859;51.064;4.580;2023-04-03T02:18:46;3.30;99.90
75262;DHT22;63859;51.064;4.580;2023-04-03T02:21:12;3.30;99.90
75262;DHT22;63859;51.064;4.580;2023-04-03T02:23:37;3.30;99.90
75262;DHT22;63859;51.064;4.580;2023-04-03T02:26:13;3.30;99.90
75262;DHT22;63859;51.064;4.580;2023-04-03T02:28:39;3.30;99.90
75262;DHT22;63859;51.064;4.580;2023-04-03T02:31:07;3.20;99.90
75262;DHT22;63859;51.064;4.580;2023-04-03T02:33:34;3.20;99.90
75262;DHT22;63859;51.064;4.580;2023-04-03T02:36:05;3.20;99.90
75262;DHT22;63859;51.064;4.580;2023-04-03T02:38:31;3.20;99.90
75262;DHT22;63859;51.064;4.580;2023-04-03T02:41:06;3.20;99.90
75262;DHT22;63859;51.064;4.580;2023-04-03T02:43:32;3.20;99.90
75262;DHT22;63859;51.064;4.580;2023-04-03T02:45:58;3.20;99.90
75262;DHT22;63859;51.064;4.580;2023-04-03T02:48:24;3.10;99.90
75262;DHT22;63859;51.064;4.580;2023-04-03T02:50:50;3.10;99.90
75262;DHT22;63859;51.064;4.580;2023-04-03T02:53:16;3.10;99.90
75262;DHT22;63859;51.064;4.580;2023-04-03T02:55:42;3.10;99.90
75262;DHT22;63859;51.064;4.580;2023-04-03T02:58:08;3.10;99.90
75262;DHT22;63859;51.064;4.580;2023-04-03T03:00:33;3.10;99.90
75262;DHT22;63859;51.064;4.580;2023-04-03T03:02:59;3.10;99.90
75262;DHT22;63859;51.064;4.580;2023-04-03T03:05:26;3.10;99.90
75262;DHT22;63859;51.064;4.580;2023-04-03T03:07:52;3.00;99.90
75262;DHT22;63859;51.064;4.580;2023-04-03T03:10:18;3.00;99.90
75262;DHT22;63859;51.064;4.580;2023-04-03T03:12:44;3.00;99.90
75262;DHT22;63859;51.064;4.580;2023-04-03T03:15:10;3.00;99.90
75262;DHT22;63859;51.064;4.580;2023-04-03T03:17:36;3.00;99.90
75262;DHT22;63859;51.064;4.580;2023-04-03T03:20:02;3.00;99.90
75262;DHT22;63859;51.064;4.580;2023-04-03T03:22:29;3.00;99.90
75262;DHT22;63859;51.064;4.580;2023-04-03T03:24:54;3.00;99.90
75262;DHT22;63859;51.064;4.580;2023-04-03T03:27:20;3.00;99.90
75262;DHT22;63859;51.064;4.580;2023-04-03T03:29:46;2.90;99.90
75262;DHT22;63859;51.064;4.580;2023-04-03T03:32:12;2.90;99.90
75262;DHT22;63859;51.064;4.580;2023-04-03T03:34:37;2.90;99.90
75262;DHT22;63859;51.064;4.580;2023-04-03T03:37:03;2.90;99.90
75262;DHT22;63859;51.064;4.580;2023-04-03T03:39:29;2.90;99.90
75262;DHT22;63859;51.064;4.580;2023-04-03T03:41:55;2.90;99.90
75262;DHT22;63859;51.064;4.580;2023-04-03T03:44:21;2.90;99.90
75262;DHT22;63859;51.064;4.580;2023-04-03T03:46:46;2.90;99.90
75262;DHT22;63859;51.064;4.580;2023-04-03T03:49:12;2.80;99.90
75262;DHT22;63859;51.064;4.580;2023-04-03T03:51:38;2.80;99.90
75262;DHT22;63859;51.064;4.580;2023-04-03T03:54:04;2.80;99.90
75262;DHT22;63859;51.064;4.580;2023-04-03T03:56:30;2.80;99.90
75262;DHT22;63859;51.064;4.580;2023-04-03T03:58:56;2.80;99.90
75262;DHT22;63859;51.064;4.580;2023-04-03T04:01:23;2.80;99.90
75262;DHT22;63859;51.064;4.580;2023-04-03T04:03:49;2.80;99.90
75262;DHT22;63859;51.064;4.580;2023-04-03T04:06:15;2.80;99.90
75262;DHT22;63859;51.064;4.580;2023-04-03T04:08:40;2.80;99.90
75262;DHT22;63859;51.064;4.580;2023-04-03T04:11:07;2.70;99.90
75262;DHT22;63859;51.064;4.580;2023-04-03T04:13:33;2.70;99.90
75262;DHT22;63859;51.064;4.580;2023-04-03T04:15:58;2.70;99.90
75262;DHT22;63859;51.064;4.580;2023-04-03T04:18:24;2.70;99.90
75262;DHT22;63859;51.064;4.580;2023-04-03T04:20:50;2.70;99.90
75262;DHT22;63859;51.064;4.580;2023-04-03T04:23:17;2.70;99.90
75262;DHT22;63859;51.064;4.580;2023-04-03T04:25:49;2.60;99.90
75262;DHT22;63859;51.064;4.580;2023-04-03T04:28:15;2.60;99.90
75262;DHT22;63859;51.064;4.580;2023-04-03T04:30:41;2.60;99.90
75262;DHT22;63859;51.064;4.580;2023-04-03T04:33:06;2.60;99.90
75262;DHT22;63859;51.064;4.580;2023-04-03T04:35:33;2.60;99.90
75262;DHT22;63859;51.064;4.580;2023-04-03T04:37:58;2.60;99.90
75262;DHT22;63859;51.064;4.580;2023-04-03T04:40:25;2.60;99.90
75262;DHT22;63859;51.064;4.580;2023-04-03T04:42:50;2.60;99.90
75262;DHT22;63859;51.064;4.580;2023-04-03T04:45:16;2.50;99.90
75262;DHT22;63859;51.064;4.580;2023-04-03T04:47:42;2.50;99.90
75262;DHT22;63859;51.064;4.580;2023-04-03T04:50:08;2.50;99.90
75262;DHT22;63859;51.064;4.580;2023-04-03T04:52:34;2.50;99.90
75262;DHT22;63859;51.064;4.580;2023-04-03T04:54:59;2.50;99.90
75262;DHT22;63859;51.064;4.580;2023-04-03T04:57:25;2.50;99.90
75262;DHT22;63859;51.064;4.580;2023-04-03T04:59:51;2.50;99.90
75262;DHT22;63859;51.064;4.580;2023-04-03T05:02:16;2.50;99.90
75262;DHT22;63859;51.064;4.580;2023-04-03T05:04:42;2.50;99.90
75262;DHT22;63859;51.064;4.580;2023-04-03T05:07:08;2.50;99.90
75262;DHT22;63859;51.064;4.580;2023-04-03T05:09:33;2.40;99.90
75262;DHT22;63859;51.064;4.580;2023-04-03T05:11:59;2.50;99.90
75262;DHT22;63859;51.064;4.580;2023-04-03T05:14:25;2.40;99.90
75262;DHT22;63859;51.064;4.580;2023-04-03T05:16:51;2.40;99.90
75262;DHT22;63859;51.064;4.580;2023-04-03T05:19:20;2.40;99.90
75262;DHT22;63859;51.064;4.580;2023-04-03T05:21:47;2.40;99.90
75262;DHT22;63859;51.064;4.580;2023-04-03T05:24:13;2.30;99.90
75262;DHT22;63859;51.064;4.580;2023-04-03T05:26:40;2.50;99.90
75262;DHT22;63859;51.064;4.580;2023-04-03T05:29:06;2.50;99.90
75262;DHT22;63859;51.064;4.580;2023-04-03T05:31:31;2.40;99.90
75262;DHT22;63859;51.064;4.580;2023-04-03T05:33:57;2.30;99.90
75262;DHT22;63859;51.064;4.580;2023-04-03T05:36:23;2.30;99.90
75262;DHT22;63859;51.064;4.580;2023-04-03T05:38:49;2.30;99.90
75262;DHT22;63859;51.064;4.580;2023-04-03T05:41:15;2.30;99.90
75262;DHT22;63859;51.064;4.580;2023-04-03T05:43:41;2.30;99.90
75262;DHT22;63859;51.064;4.580;2023-04-03T05:46:10;2.30;99.90
75262;DHT22;63859;51.064;4.580;2023-04-03T05:48:36;2.30;99.90
75262;DHT22;63859;51.064;4.580;2023-04-03T05:51:02;2.30;99.90
75262;DHT22;63859;51.064;4.580;2023-04-03T05:53:29;2.30;99.90
75262;DHT22;63859;51.064;4.580;2023-04-03T05:55:57;2.20;99.90
75262;DHT22;63859;51.064;4.580;2023-04-03T05:58:23;2.30;99.90
75262;DHT22;63859;51.064;4.580;2023-04-03T06:00:48;2.40;99.90
75262;DHT22;63859;51.064;4.580;2023-04-03T06:03:14;2.30;99.90
75262;DHT22;63859;51.064;4.580;2023-04-03T06:05:40;2.40;99.90
75262;DHT22;63859;51.064;4.580;2023-04-03T06:08:07;2.40;99.90
75262;DHT22;63859;51.064;4.580;2023-04-03T06:10:34;2.50;99.90
75262;DHT22;63859;51.064;4.580;2023-04-03T06:13:00;2.50;99.90
75262;DHT22;63859;51.064;4.580;2023-04-03T06:15:26;2.40;99.90
75262;DHT22;63859;51.064;4.580;2023-04-03T06:17:52;2.50;99.90
75262;DHT22;63859;51.064;4.580;2023-04-03T06:20:18;2.50;99.90
75262;DHT22;63859;51.064;4.580;2023-04-03T06:22:43;2.50;99.90
75262;DHT22;63859;51.064;4.580;2023-04-03T06:25:09;2.60;99.90
75262;DHT22;63859;51.064;4.580;2023-04-03T06:27:35;2.60;99.90
75262;DHT22;63859;51.064;4.580;2023-04-03T06:30:01;2.70;99.90
75262;DHT22;63859;51.064;4.580;2023-04-03T06:32:26;2.60;99.90
75262;DHT22;63859;51.064;4.580;2023-04-03T06:34:52;2.70;99.90
75262;DHT22;63859;51.064;4.580;2023-04-03T06:37:21;2.70;99.90
75262;DHT22;63859;51.064;4.580;2023-04-03T06:39:47;2.70;99.90
75262;DHT22;63859;51.064;4.580;2023-04-03T06:42:12;2.80;99.90
75262;DHT22;63859;51.064;4.580;2023-04-03T06:44:38;2.80;99.90
75262;DHT22;63859;51.064;4.580;2023-04-03T06:47:04;2.90;99.90
75262;DHT22;63859;51.064;4.580;2023-04-03T06:49:30;2.90;99.90
75262;DHT22;63859;51.064;4.580;2023-04-03T06:51:56;3.00;99.90
75262;DHT22;63859;51.064;4.580;2023-04-03T06:54:22;3.00;99.90
75262;DHT22;63859;51.064;4.580;2023-04-03T06:56:48;3.10;99.90
75262;DHT22;63859;51.064;4.580;2023-04-03T06:59:14;3.10;99.90
75262;DHT22;63859;51.064;4.580;2023-04-03T07:01:40;3.10;99.90
75262;DHT22;63859;51.064;4.580;2023-04-03T07:04:06;3.20;99.90
75262;DHT22;63859;51.064;4.580;2023-04-03T07:06:33;3.20;99.90
75262;DHT22;63859;51.064;4.580;2023-04-03T07:08:59;3.30;99.90
75262;DHT22;63859;51.064;4.580;2023-04-03T07:11:25;3.30;99.90
75262;DHT22;63859;51.064;4.580;2023-04-03T07:13:51;3.40;99.90
75262;DHT22;63859;51.064;4.580;2023-04-03T07:16:18;3.50;99.90
75262;DHT22;63859;51.064;4.580;2023-04-03T07:18:44;3.50;99.90
75262;DHT22;63859;51.064;4.580;2023-04-03T07:21:10;3.60;99.90
75262;DHT22;63859;51.064;4.580;2023-04-03T07:23:36;3.60;99.90
75262;DHT22;63859;51.064;4.580;2023-04-03T07:26:01;3.60;99.90
75262;DHT22;63859;51.064;4.580;2023-04-03T07:28:27;3.70;99.90
75262;DHT22;63859;51.064;4.580;2023-04-03T07:31:05;3.80;99.90
75262;DHT22;63859;51.064;4.580;2023-04-03T07:33:32;3.80;99.90
75262;DHT22;63859;51.064;4.580;2023-04-03T07:35:58;3.90;99.90
75262;DHT22;63859;51.064;4.580;2023-04-03T07:38:24;4.00;99.90
75262;DHT22;63859;51.064;4.580;2023-04-03T07:40:51;4.00;99.90
75262;DHT22;63859;51.064;4.580;2023-04-03T07:43:19;4.10;99.90
75262;DHT22;63859;51.064;4.580;2023-04-03T07:45:45;4.10;99.90
75262;DHT22;63859;51.064;4.580;2023-04-03T07:48:13;4.10;99.90
75262;DHT22;63859;51.064;4.580;2023-04-03T07:50:42;4.20;99.90
75262;DHT22;63859;51.064;4.580;2023-04-03T07:53:08;4.30;99.90
75262;DHT22;63859;51.064;4.580;2023-04-03T07:55:34;4.40;99.90
75262;DHT22;63859;51.064;4.580;2023-04-03T07:58:02;4.60;99.90
75262;DHT22;63859;51.064;4.580;2023-04-03T08:00:28;4.60;99.90
75262;DHT22;63859;51.064;4.580;2023-04-03T08:02:54;4.60;99.90
75262;DHT22;63859;51.064;4.580;2023-04-03T08:05:21;4.70;99.90
75262;DHT22;63859;51.064;4.580;2023-04-03T08:07:47;4.80;99.90
75262;DHT22;63859;51.064;4.580;2023-04-03T08:10:14;4.90;99.90
75262;DHT22;63859;51.064;4.580;2023-04-03T08:12:40;5.00;99.90
75262;DHT22;63859;51.064;4.580;2023-04-03T08:15:07;5.00;99.90
75262;DHT22;63859;51.064;4.580;2023-04-03T08:17:33;5.10;99.90
75262;DHT22;63859;51.064;4.580;2023-04-03T08:19:59;5.10;99.90
75262;DHT22;63859;51.064;4.580;2023-04-03T08:22:25;5.20;99.90
75262;DHT22;63859;51.064;4.580;2023-04-03T08:24:50;5.30;99.90
75262;DHT22;63859;51.064;4.580;2023-04-03T08:27:16;5.40;99.90
75262;DHT22;63859;51.064;4.580;2023-04-03T08:29:42;5.50;99.90
75262;DHT22;63859;51.064;4.580;2023-04-03T08:32:07;5.60;99.90
75262;DHT22;63859;51.064;4.580;2023-04-03T08:34:33;5.70;99.90
75262;DHT22;63859;51.064;4.580;2023-04-03T08:37:00;5.70;99.90
75262;DHT22;63859;51.064;4.580;2023-04-03T08:39:27;5.80;99.90
75262;DHT22;63859;51.064;4.580;2023-04-03T08:41:55;5.90;99.90
75262;DHT22;63859;51.064;4.580;2023-04-03T08:52:39;6.30;99.90
75262;DHT22;63859;51.064;4.580;2023-04-03T08:58:07;6.50;99.90
75262;DHT22;63859;51.064;4.580;2023-04-03T09:03:16;6.70;99.90
75262;DHT22;63859;51.064;4.580;2023-04-03T09:11:35;6.90;99.90
75262;DHT22;63859;51.064;4.580;2023-04-03T09:14:33;6.90;99.90
75262;DHT22;63859;51.064;4.580;2023-04-03T09:20:06;7.10;99.90
75262;DHT22;63859;51.064;4.580;2023-04-03T09:22:39;7.40;99.90
75262;DHT22;63859;51.064;4.580;2023-04-03T09:25:23;7.30;99.90
75262;DHT22;63859;51.064;4.580;2023-04-03T09:27:50;7.30;99.90
75262;DHT22;63859;51.064;4.580;2023-04-03T09:30:20;7.40;99.90
75262;DHT22;63859;51.064;4.580;2023-04-03T09:32:47;7.50;99.90
75262;DHT22;63859;51.064;4.580;2023-04-03T09:35:26;7.60;99.90
75262;DHT22;63859;51.064;4.580;2023-04-03T09:38:00;7.60;99.90
75262;DHT22;63859;51.064;4.580;2023-04-03T09:42:55;7.80;99.90
75262;DHT22;63859;51.064;4.580;2023-04-03T09:45:33;7.90;99.90
75262;DHT22;63859;51.064;4.580;2023-04-03T09:50:58;7.90;99.90
75262;DHT22;63859;51.064;4.580;2023-04-03T09:53:42;8.10;99.90
75262;DHT22;63859;51.064;4.580;2023-04-03T10:04:50;8.40;99.90
75262;DHT22;63859;51.064;4.580;2023-04-03T10:07:33;8.60;99.90
75262;DHT22;63859;51.064;4.580;2023-04-03T10:10:18;8.70;99.90
75262;DHT22;63859;51.064;4.580;2023-04-03T10:12:45;8.60;99.90
75262;DHT22;63859;51.064;4.580;2023-04-03T10:15:16;8.70;99.90
75262;DHT22;63859;51.064;4.580;2023-04-03T10:18:00;8.90;99.90
75262;DHT22;63859;51.064;4.580;2023-04-03T10:20:39;9.00;99.90
75262;DHT22;63859;51.064;4.580;2023-04-03T10:32:09;9.30;99.90
75262;DHT22;63859;51.064;4.580;2023-04-03T10:34:43;9.50;99.90
75262;DHT22;63859;51.064;4.580;2023-04-03T10:37:24;9.60;99.90
75262;DHT22;63859;51.064;4.580;2023-04-03T10:42:35;9.80;99.90
75262;DHT22;63859;51.064;4.580;2023-04-03T10:48:06;10.00;99.90
75262;DHT22;63859;51.064;4.580;2023-04-03T10:50:48;10.10;99.90
75262;DHT22;63859;51.064;4.580;2023-04-03T10:56:25;10.10;99.90
75262;DHT22;63859;51.064;4.580;2023-04-03T10:59:01;10.30;99.90
75262;DHT22;63859;51.064;4.580;2023-04-03T11:01:33;10.50;99.90
75262;DHT22;63859;51.064;4.580;2023-04-03T11:04:00;10.60;99.90
75262;DHT22;63859;51.064;4.580;2023-04-03T11:06:51;10.60;99.90
75262;DHT22;63859;51.064;4.580;2023-04-03T11:09:28;10.70;99.90
75262;DHT22;63859;51.064;4.580;2023-04-03T11:12:02;10.80;99.90
75262;DHT22;63859;51.064;4.580;2023-04-03T11:14:34;10.90;99.90
75262;DHT22;63859;51.064;4.580;2023-04-03T11:17:15;11.00;99.90
75262;DHT22;63859;51.064;4.580;2023-04-03T11:19:52;10.90;99.90
75262;DHT22;63859;51.064;4.580;2023-04-03T11:22:35;11.10;99.90
75262;DHT22;63859;51.064;4.580;2023-04-03T11:27:44;11.30;99.60
75262;DHT22;63859;51.064;4.580;2023-04-03T11:30:33;11.40;98.80
75262;DHT22;63859;51.064;4.580;2023-04-03T11:36:09;11.40;95.00
75262;DHT22;63859;51.064;4.580;2023-04-03T11:38:40;11.40;93.20
75262;DHT22;63859;51.064;4.580;2023-04-03T11:41:08;11.50;91.60
75262;DHT22;63859;51.064;4.580;2023-04-03T11:43:58;11.40;92.10
75262;DHT22;63859;51.064;4.580;2023-04-03T11:47:43;11.70;91.20
75262;DHT22;63859;51.064;4.580;2023-04-03T11:50:03;11.60;87.70
75262;DHT22;63859;51.064;4.580;2023-04-03T11:58:12;11.70;83.00
75262;DHT22;63859;51.064;4.580;2023-04-03T12:05:58;12.20;78.70
75262;DHT22;63859;51.064;4.580;2023-04-03T12:16:26;12.70;76.80
75262;DHT22;63859;51.064;4.580;2023-04-03T12:21:20;12.90;72.80
75262;DHT22;63859;51.064;4.580;2023-04-03T12:24:26;12.90;73.70
75262;DHT22;63859;51.064;4.580;2023-04-03T12:27:25;13.00;72.10
75262;DHT22;63859;51.064;4.580;2023-04-03T12:35:23;13.40;73.20
75262;DHT22;63859;51.064;4.580;2023-04-03T12:46:17;13.10;65.70
75262;DHT22;63859;51.064;4.580;2023-04-03T12:48:53;13.10;65.60
75262;DHT22;63859;51.064;4.580;2023-04-03T12:51:31;13.20;65.60
75262;DHT22;63859;51.064;4.580;2023-04-03T12:54:12;13.00;65.80
75262;DHT22;63859;51.064;4.580;2023-04-03T12:56:39;13.20;67.60
75262;DHT22;63859;51.064;4.580;2023-04-03T12:59:25;13.40;69.40
75262;DHT22;63859;51.064;4.580;2023-04-03T13:02:01;13.70;71.50
75262;DHT22;63859;51.064;4.580;2023-04-03T13:04:30;13.60;65.90
75262;DHT22;63859;51.064;4.580;2023-04-03T13:06:56;13.80;65.00
75262;DHT22;63859;51.064;4.580;2023-04-03T13:09:29;13.80;67.50
75262;DHT22;63859;51.064;4.580;2023-04-03T13:12:02;13.80;65.70
75262;DHT22;63859;51.064;4.580;2023-04-03T13:14:30;14.00;68.70
75262;DHT22;63859;51.064;4.580;2023-04-03T13:16:58;14.00;63.40
75262;DHT22;63859;51.064;4.580;2023-04-03T13:19:26;14.00;64.60
75262;DHT22;63859;51.064;4.580;2023-04-03T13:22:02;14.20;61.10
75262;DHT22;63859;51.064;4.580;2023-04-03T13:24:32;14.20;63.90
75262;DHT22;63859;51.064;4.580;2023-04-03T13:26:59;14.30;62.90
75262;DHT22;63859;51.064;4.580;2023-04-03T13:29:33;14.60;64.00
75262;DHT22;63859;51.064;4.580;2023-04-03T13:32:00;14.50;63.20
75262;DHT22;63859;51.064;4.580;2023-04-03T13:34:29;14.30;62.90
75262;DHT22;63859;51.064;4.580;2023-04-03T13:37:01;14.30;66.30
75262;DHT22;63859;51.064;4.580;2023-04-03T13:39:39;14.60;63.50
75262;DHT22;63859;51.064;4.580;2023-04-03T13:42:24;14.50;62.30
75262;DHT22;63859;51.064;4.580;2023-04-03T13:45:11;14.70;61.80
75262;DHT22;63859;51.064;4.580;2023-04-03T13:47:44;14.90;64.40
75262;DHT22;63859;51.064;4.580;2023-04-03T13:53:11;15.20;63.30
75262;DHT22;63859;51.064;4.580;2023-04-03T13:56:07;15.50;60.80
75262;DHT22;63859;51.064;4.580;2023-04-03T13:58:34;15.50;60.90
75262;DHT22;63859;51.064;4.580;2023-04-03T14:01:11;15.10;60.10
75262;DHT22;63859;51.064;4.580;2023-04-03T14:03:47;15.00;61.00
75262;DHT22;63859;51.064;4.580;2023-04-03T14:06:15;15.00;57.40
75262;DHT22;63859;51.064;4.580;2023-04-03T14:08:42;15.00;58.50
75262;DHT22;63859;51.064;4.580;2023-04-03T14:11:16;15.30;58.00
75262;DHT22;63859;51.064;4.580;2023-04-03T14:13:43;15.40;56.10
75262;DHT22;63859;51.064;4.580;2023-04-03T14:16:15;15.40;55.60
75262;DHT22;63859;51.064;4.580;2023-04-03T14:18:43;15.40;54.80
75262;DHT22;63859;51.064;4.580;2023-04-03T14:21:12;15.50;55.50
75262;DHT22;63859;51.064;4.580;2023-04-03T14:23:38;15.50;56.80
75262;DHT22;63859;51.064;4.580;2023-04-03T14:26:12;15.90;55.10
75262;DHT22;63859;51.064;4.580;2023-04-03T14:28:39;16.10;57.10
75262;DHT22;63859;51.064;4.580;2023-04-03T14:31:06;16.20;54.50
75262;DHT22;63859;51.064;4.580;2023-04-03T14:33:32;16.40;55.90
75262;DHT22;63859;51.064;4.580;2023-04-03T14:36:00;16.70;54.90
75262;DHT22;63859;51.064;4.580;2023-04-03T14:38:30;16.50;53.70
75262;DHT22;63859;51.064;4.580;2023-04-03T14:40:57;16.40;52.20
75262;DHT22;63859;51.064;4.580;2023-04-03T14:43:23;16.40;52.70
75262;DHT22;63859;51.064;4.580;2023-04-03T14:45:49;16.60;54.70
75262;DHT22;63859;51.064;4.580;2023-04-03T14:48:22;16.80;52.90
75262;DHT22;63859;51.064;4.580;2023-04-03T14:50:49;17.30;53.30
75262;DHT22;63859;51.064;4.580;2023-04-03T14:53:15;17.20;52.20
75262;DHT22;63859;51.064;4.580;2023-04-03T14:55:44;17.20;52.70
75262;DHT22;63859;51.064;4.580;2023-04-03T14:58:15;17.20;51.90
75262;DHT22;63859;51.064;4.580;2023-04-03T15:00:42;17.20;53.40
75262;DHT22;63859;51.064;4.580;2023-04-03T15:03:19;17.50;52.70
75262;DHT22;63859;51.064;4.580;2023-04-03T15:05:46;17.50;50.10
75262;DHT22;63859;51.064;4.580;2023-04-03T15:08:21;17.60;51.60
75262;DHT22;63859;51.064;4.580;2023-04-03T15:10:47;17.70;49.20
75262;DHT22;63859;51.064;4.580;2023-04-03T15:13:14;17.60;48.20
75262;DHT22;63859;51.064;4.580;2023-04-03T15:15:40;17.30;48.20
75262;DHT22;63859;51.064;4.580;2023-04-03T15:18:06;17.10;48.10
75262;DHT22;63859;51.064;4.580;2023-04-03T15:20:32;17.40;48.90
75262;DHT22;63859;51.064;4.580;2023-04-03T15:22:59;17.60;50.00
75262;DHT22;63859;51.064;4.580;2023-04-03T15:25:29;17.80;49.20
75262;DHT22;63859;51.064;4.580;2023-04-03T15:27:56;18.10;51.10
75262;DHT22;63859;51.064;4.580;2023-04-03T15:30:22;18.00;48.90
75262;DHT22;63859;51.064;4.580;2023-04-03T15:32:48;18.10;49.40
75262;DHT22;63859;51.064;4.580;2023-04-03T15:35:14;18.00;47.80
75262;DHT22;63859;51.064;4.580;2023-04-03T15:37:40;17.90;49.50
75262;DHT22;63859;51.064;4.580;2023-04-03T15:40:07;18.00;48.80
75262;DHT22;63859;51.064;4.580;2023-04-03T15:42:32;17.80;48.30
75262;DHT22;63859;51.064;4.580;2023-04-03T15:44:58;18.10;49.10
75262;DHT22;63859;51.064;4.580;2023-04-03T15:47:25;18.00;48.30
75262;DHT22;63859;51.064;4.580;2023-04-03T15:49:51;18.20;49.50
75262;DHT22;63859;51.064;4.580;2023-04-03T15:52:16;18.20;48.30
75262;DHT22;63859;51.064;4.580;2023-04-03T15:54:42;18.30;48.60
75262;DHT22;63859;51.064;4.580;2023-04-03T15:57:07;18.40;46.50
75262;DHT22;63859;51.064;4.580;2023-04-03T15:59:33;18.60;47.00
75262;DHT22;63859;51.064;4.580;2023-04-03T16:01:59;18.50;46.30
75262;DHT22;63859;51.064;4.580;2023-04-03T16:04:27;18.30;47.00
75262;DHT22;63859;51.064;4.580;2023-04-03T16:06:53;18.10;47.50
75262;DHT22;63859;51.064;4.580;2023-04-03T16:09:18;18.00;48.00
75262;DHT22;63859;51.064;4.580;2023-04-03T16:11:44;18.30;48.00
75262;DHT22;63859;51.064;4.580;2023-04-03T16:14:10;18.50;49.10
75262;DHT22;63859;51.064;4.580;2023-04-03T16:16:36;18.80;49.10
75262;DHT22;63859;51.064;4.580;2023-04-03T16:19:03;19.10;49.60
75262;DHT22;63859;51.064;4.580;2023-04-03T16:21:29;18.90;48.20
75262;DHT22;63859;51.064;4.580;2023-04-03T16:23:59;18.80;48.30
75262;DHT22;63859;51.064;4.580;2023-04-03T16:26:25;18.60;47.50
75262;DHT22;63859;51.064;4.580;2023-04-03T16:28:52;18.60;47.80
75262;DHT22;63859;51.064;4.580;2023-04-03T16:31:18;18.40;48.80
75262;DHT22;63859;51.064;4.580;2023-04-03T16:33:44;18.80;48.20
75262;DHT22;63859;51.064;4.580;2023-04-03T16:36:09;18.60;50.20
75262;DHT22;63859;51.064;4.580;2023-04-03T16:38:35;18.80;49.10
75262;DHT22;63859;51.064;4.580;2023-04-03T16:41:01;19.10;49.90
75262;DHT22;63859;51.064;4.580;2023-04-03T16:43:30;18.80;47.80
75262;DHT22;63859;51.064;4.580;2023-04-03T16:45:56;18.80;48.80
75262;DHT22;63859;51.064;4.580;2023-04-03T16:48:22;18.60;49.50
75262;DHT22;63859;51.064;4.580;2023-04-03T16:50:48;18.40;48.80
75262;DHT22;63859;51.064;4.580;2023-04-03T16:53:16;18.30;48.80
75262;DHT22;63859;51.064;4.580;2023-04-03T16:55:41;17.90;49.80
75262;DHT22;63859;51.064;4.580;2023-04-03T16:58:07;17.70;49.90
75262;DHT22;63859;51.064;4.580;2023-04-03T17:00:33;17.30;49.80
75262;DHT22;63859;51.064;4.580;2023-04-03T17:02:59;17.10;50.80
75262;DHT22;63859;51.064;4.580;2023-04-03T17:05:25;17.30;50.60
75262;DHT22;63859;51.064;4.580;2023-04-03T17:07:50;17.10;49.40
75262;DHT22;63859;51.064;4.580;2023-04-03T17:10:16;16.90;50.60
75262;DHT22;63859;51.064;4.580;2023-04-03T17:12:42;17.00;51.10
75262;DHT22;63859;51.064;4.580;2023-04-03T17:15:08;17.00;50.50
75262;DHT22;63859;51.064;4.580;2023-04-03T17:17:35;16.70;50.70
75262;DHT22;63859;51.064;4.580;2023-04-03T17:20:01;16.70;52.80
75262;DHT22;63859;51.064;4.580;2023-04-03T17:22:28;16.80;52.20
75262;DHT22;63859;51.064;4.580;2023-04-03T17:24:54;16.20;51.90
75262;DHT22;63859;51.064;4.580;2023-04-03T17:27:20;15.50;53.40
75262;DHT22;63859;51.064;4.580;2023-04-03T17:29:46;14.70;54.50
75262;DHT22;63859;51.064;4.580;2023-04-03T17:32:11;14.00;55.10
75262;DHT22;63859;51.064;4.580;2023-04-03T17:34:37;13.40;54.80